sensor_id;sensor_type;location;lat;lon;timestamp;pressure;altitude;pressure_sealevel;temperature;humidity
55077;BME280;40971;44.702;11.030;2023-07-16T00:02:44;101208.72;;;23.36;89.17
55077;BME280;40971;44.702;11.030;2023-07-16T00:12:46;101220.16;;;23.43;88.33
55077;BME280;40971;44.702;11.030;2023-07-16T00:22:51;101222.72;;;23.38;88.57
55077;BME280;40971;44.702;11.030;2023-07-16T00:32:53;101240.91;;;23.36;88.29
55077;BME280;40971;44.702;11.030;2023-07-16T00:42:55;101221.31;;;23.24;88.98
55077;BME280;40971;44.702;11.030;2023-07-16T00:52:58;101225.16;;;23.16;89.55
55077;BME280;40971;44.702;11.030;2023-07-16T01:03:02;101222.81;;;22.85;89.19
55077;BME280;40971;44.702;11.030;2023-07-16T01:13:05;101219.16;;;22.68;89.19
55077;BME280;40971;44.702;11.030;2023-07-16T01:33:10;101214.63;;;22.38;90.28
55077;BME280;40971;44.702;11.030;2023-07-16T01:43:14;101208.22;;;22.39;91.79
55077;BME280;40971;44.702;11.030;2023-07-16T01:53:18;101226.47;;;22.01;92.23
55077;BME280;40971;44.702;11.030;2023-07-16T02:03:19;101211.41;;;22.18;92.87
55077;BME280;40971;44.702;11.030;2023-07-16T02:13:21;101212.41;;;22.35;91.14
55077;BME280;40971;44.702;11.030;2023-07-16T02:23:24;101210.13;;;21.91;90.55
55077;BME280;40971;44.702;11.030;2023-07-16T02:33:26;101219.94;;;21.97;91.89
55077;BME280;40971;44.702;11.030;2023-07-16T02:43:29;101214.69;;;22.20;90.97
55077;BME280;40971;44.702;11.030;2023-07-16T02:53:31;101215.06;;;22.05;91.11
55077;BME280;40971;44.702;11.030;2023-07-16T03:03:34;101237.41;;;21.81;90.77
55077;BME280;40971;44.702;11.030;2023-07-16T03:13:36;101250.63;;;22.13;91.25
55077;BME280;40971;44.702;11.030;2023-07-16T03:23:40;101239.28;;;21.99;90.09
55077;BME280;40971;44.702;11.030;2023-07-16T03:33:43;101244.63;;;21.63;91.63
55077;BME280;40971;44.702;11.030;2023-07-16T03:43:45;101251.38;;;21.65;91.65
55077;BME280;40971;44.702;11.030;2023-07-16T03:53:47;101259.66;;;21.39;91.09
55077;BME280;40971;44.702;11.030;2023-07-16T04:03:48;101247.78;;;21.35;91.90
55077;BME280;40971;44.702;11.030;2023-07-16T04:13:50;101244.38;;;21.46;91.65
55077;BME280;40971;44.702;11.030;2023-07-16T04:23:53;101240.38;;;21.73;92.52
55077;BME280;40971;44.702;11.030;2023-07-16T04:33:54;101265.22;;;21.98;92.04
55077;BME280;40971;44.702;11.030;2023-07-16T04:43:57;101276.16;;;22.15;92.04
55077;BME280;40971;44.702;11.030;2023-07-16T04:53:59;101264.16;;;22.47;92.84
55077;BME280;40971;44.702;11.030;2023-07-16T05:04:01;101272.38;;;22.94;93.32
55077;BME280;40971;44.702;11.030;2023-07-16T05:14:02;101274.28;;;23.28;93.32
55077;BME280;40971;44.702;11.030;2023-07-16T05:24:06;101293.69;;;23.42;90.24
55077;BME280;40971;44.702;11.030;2023-07-16T05:34:08;101264.94;;;23.31;80.81
55077;BME280;40971;44.702;11.030;2023-07-16T05:44:11;101283.28;;;23.68;80.49
55077;BME280;40971;44.702;11.030;2023-07-16T05:54:15;101299.56;;;24.02;76.12
55077;BME280;40971;44.702;11.030;2023-07-16T06:04:17;101299.53;;;24.25;76.20
55077;BME280;40971;44.702;11.030;2023-07-16T06:14:20;101313.38;;;24.73;73.13
55077;BME280;40971;44.702;11.030;2023-07-16T06:24:22;101304.06;;;25.09;73.85
55077;BME280;40971;44.702;11.030;2023-07-16T06:34:25;101303.31;;;25.47;75.07
55077;BME280;40971;44.702;11.030;2023-07-16T06:44:28;101302.56;;;25.90;77.79
55077;BME280;40971;44.702;11.030;2023-07-16T06:54:29;101304.13;;;26.51;77.01
55077;BME280;40971;44.702;11.030;2023-07-16T07:04:31;101306.59;;;27.43;73.42
55077;BME280;40971;44.702;11.030;2023-07-16T07:14:33;101313.16;;;29.11;68.06
55077;BME280;40971;44.702;11.030;2023-07-16T07:24:36;101313.59;;;29.79;66.72
55077;BME280;40971;44.702;11.030;2023-07-16T07:34:39;101304.66;;;30.47;62.85
55077;BME280;40971;44.702;11.030;2023-07-16T07:44:41;101305.44;;;30.92;59.60
55077;BME280;40971;44.702;11.030;2023-07-16T07:54:42;101314.38;;;32.26;58.47
55077;BME280;40971;44.702;11.030;2023-07-16T08:04:47;101320.31;;;32.70;56.62
55077;BME280;40971;44.702;11.030;2023-07-16T08:14:50;101321.19;;;33.17;54.32
55077;BME280;40971;44.702;11.030;2023-07-16T08:24:51;101318.06;;;33.10;57.28
55077;BME280;40971;44.702;11.030;2023-07-16T08:34:54;101333.47;;;34.20;52.21
55077;BME280;40971;44.702;11.030;2023-07-16T08:44:56;101332.44;;;33.88;52.49
55077;BME280;40971;44.702;11.030;2023-07-16T08:54:57;101329.72;;;34.16;52.86
55077;BME280;40971;44.702;11.030;2023-07-16T09:05:02;101336.69;;;33.35;53.79
55077;BME280;40971;44.702;11.030;2023-07-16T09:15:07;101327.47;;;33.90;54.04
55077;BME280;40971;44.702;11.030;2023-07-16T09:25:08;101331.50;;;34.07;53.12
55077;BME280;40971;44.702;11.030;2023-07-16T09:35:13;101331.81;;;34.68;52.20
55077;BME280;40971;44.702;11.030;2023-07-16T09:45:18;101321.28;;;35.50;50.04
55077;BME280;40971;44.702;11.030;2023-07-16T09:55:22;101337.00;;;34.92;51.06
55077;BME280;40971;44.702;11.030;2023-07-16T10:05:28;101339.81;;;35.93;46.36
55077;BME280;40971;44.702;11.030;2023-07-16T10:15:29;101343.69;;;36.00;45.98
55077;BME280;40971;44.702;11.030;2023-07-16T10:25:34;101327.88;;;36.71;44.06
55077;BME280;40971;44.702;11.030;2023-07-16T10:35:35;101328.19;;;36.78;44.58
55077;BME280;40971;44.702;11.030;2023-07-16T10:45:37;101327.06;;;36.62;41.47
55077;BME280;40971;44.702;11.030;2023-07-16T10:55:41;101326.50;;;37.28;38.27
55077;BME280;40971;44.702;11.030;2023-07-16T11:05:46;101324.47;;;37.08;40.21
55077;BME280;40971;44.702;11.030;2023-07-16T11:15:47;101315.41;;;38.01;38.23
55077;BME280;40971;44.702;11.030;2023-07-16T11:25:49;101313.09;;;39.06;34.25
55077;BME280;40971;44.702;11.030;2023-07-16T11:35:53;101309.88;;;38.51;36.57
55077;BME280;40971;44.702;11.030;2023-07-16T11:45:56;101293.13;;;38.02;34.62
55077;BME280;40971;44.702;11.030;2023-07-16T11:56:00;101278.47;;;38.39;37.20
55077;BME280;40971;44.702;11.030;2023-07-16T12:06:05;101263.03;;;38.26;37.94
55077;BME280;40971;44.702;11.030;2023-07-16T12:16:07;101254.84;;;37.97;35.37
55077;BME280;40971;44.702;11.030;2023-07-16T12:26:10;101239.19;;;39.05;40.09
55077;BME280;40971;44.702;11.030;2023-07-16T12:36:13;101233.56;;;38.15;36.40
55077;BME280;40971;44.702;11.030;2023-07-16T12:46:15;101227.84;;;39.54;41.71
55077;BME280;40971;44.702;11.030;2023-07-16T12:56:17;101235.16;;;37.95;36.76
55077;BME280;40971;44.702;11.030;2023-07-16T13:06:18;101239.09;;;39.49;32.92
55077;BME280;40971;44.702;11.030;2023-07-16T13:16:19;101222.81;;;39.81;34.01
55077;BME280;40971;44.702;11.030;2023-07-16T13:26:20;101226.13;;;38.15;33.15
55077;BME280;40971;44.702;11.030;2023-07-16T13:36:22;101214.63;;;39.12;34.21
55077;BME280;40971;44.702;11.030;2023-07-16T13:46:26;101223.72;;;37.93;31.30
55077;BME280;40971;44.702;11.030;2023-07-16T13:56:27;101231.09;;;39.69;29.11
55077;BME280;40971;44.702;11.030;2023-07-16T14:06:29;101217.03;;;38.56;27.42
55077;BME280;40971;44.702;11.030;2023-07-16T14:16:30;101206.28;;;39.81;27.89
55077;BME280;40971;44.702;11.030;2023-07-16T14:26:31;101188.28;;;39.71;29.08
55077;BME280;40971;44.702;11.030;2023-07-16T14:36:35;101185.31;;;39.16;27.39
55077;BME280;40971;44.702;11.030;2023-07-16T14:46:37;101175.44;;;39.51;33.74
55077;BME280;40971;44.702;11.030;2023-07-16T14:56:41;101175.47;;;40.58;31.61
55077;BME280;40971;44.702;11.030;2023-07-16T15:06:44;101169.84;;;39.99;28.19
55077;BME280;40971;44.702;11.030;2023-07-16T15:16:45;101151.72;;;40.54;34.45
55077;BME280;40971;44.702;11.030;2023-07-16T15:26:47;101147.34;;;39.57;29.69
55077;BME280;40971;44.702;11.030;2023-07-16T15:36:48;101142.91;;;39.17;30.25
55077;BME280;40971;44.702;11.030;2023-07-16T15:46:52;101131.53;;;39.06;30.27
55077;BME280;40971;44.702;11.030;2023-07-16T15:56:53;101117.78;;;37.83;36.15
55077;BME280;40971;44.702;11.030;2023-07-16T16:06:55;101125.84;;;38.09;32.66
55077;BME280;40971;44.702;11.030;2023-07-16T16:16:58;101116.84;;;38.21;34.84
55077;BME280;40971;44.702;11.030;2023-07-16T16:26:59;101112.94;;;37.18;35.93
55077;BME280;40971;44.702;11.030;2023-07-16T16:37:00;101117.09;;;36.87;34.59
55077;BME280;40971;44.702;11.030;2023-07-16T16:47:01;101110.03;;;37.44;35.43
55077;BME280;40971;44.702;11.030;2023-07-16T16:57:03;101115.59;;;37.06;33.48
55077;BME280;40971;44.702;11.030;2023-07-16T17:07:07;101107.16;;;35.84;37.81
55077;BME280;40971;44.702;11.030;2023-07-16T17:17:11;101101.41;;;35.21;37.05
55077;BME280;40971;44.702;11.030;2023-07-16T17:27:13;101096.69;;;35.04;38.76
55077;BME280;40971;44.702;11.030;2023-07-16T17:37:17;101094.84;;;34.82;39.96
55077;BME280;40971;44.702;11.030;2023-07-16T17:47:19;101114.53;;;34.40;44.80
55077;BME280;40971;44.702;11.030;2023-07-16T17:57:22;101124.06;;;34.07;50.40
55077;BME280;40971;44.702;11.030;2023-07-16T18:07:23;101134.91;;;33.76;50.72
55077;BME280;40971;44.702;11.030;2023-07-16T18:17:25;101141.00;;;32.91;53.09
55077;BME280;40971;44.702;11.030;2023-07-16T18:27:26;101144.13;;;32.20;54.28
55077;BME280;40971;44.702;11.030;2023-07-16T18:37:30;101148.56;;;31.55;58.65
55077;BME280;40971;44.702;11.030;2023-07-16T18:47:34;101146.03;;;31.16;52.73
55077;BME280;40971;44.702;11.030;2023-07-16T18:57:36;101149.16;;;30.76;63.01
55077;BME280;40971;44.702;11.030;2023-07-16T19:07:38;101162.88;;;29.78;67.26
55077;BME280;40971;44.702;11.030;2023-07-16T19:17:40;101173.19;;;28.71;69.73
55077;BME280;40971;44.702;11.030;2023-07-16T19:27:41;101188.34;;;28.57;71.27
55077;BME280;40971;44.702;11.030;2023-07-16T19:37:43;101202.66;;;28.27;71.46
55077;BME280;40971;44.702;11.030;2023-07-16T19:47:45;101207.97;;;28.02;74.53
55077;BME280;40971;44.702;11.030;2023-07-16T19:57:46;101230.06;;;27.79;72.21
55077;BME280;40971;44.702;11.030;2023-07-16T20:07:51;101241.28;;;28.13;69.08
55077;BME280;40971;44.702;11.030;2023-07-16T20:17:53;101241.84;;;28.20;68.49
55077;BME280;40971;44.702;11.030;2023-07-16T20:27:56;101261.84;;;28.14;69.07
55077;BME280;40971;44.702;11.030;2023-07-16T20:37:59;101271.22;;;28.01;69.85
55077;BME280;40971;44.702;11.030;2023-07-16T20:48:01;101269.00;;;27.83;71.00
55077;BME280;40971;44.702;11.030;2023-07-16T20:58:05;101280.78;;;27.62;71.83
55077;BME280;40971;44.702;11.030;2023-07-16T21:08:06;101295.28;;;27.46;72.71
55077;BME280;40971;44.702;11.030;2023-07-16T21:18:09;101293.00;;;27.33;73.16
55077;BME280;40971;44.702;11.030;2023-07-16T21:28:12;101304.13;;;26.78;75.99
55077;BME280;40971;44.702;11.030;2023-07-16T21:38:15;101301.84;;;26.16;79.53
55077;BME280;40971;44.702;11.030;2023-07-16T21:48:17;101302.91;;;25.93;80.53
55077;BME280;40971;44.702;11.030;2023-07-16T21:58:21;101316.19;;;25.45;82.86
55077;BME280;40971;44.702;11.030;2023-07-16T22:08:24;101315.53;;;25.38;83.15
55077;BME280;40971;44.702;11.030;2023-07-16T22:18:26;101325.81;;;25.08;84.87
55077;BME280;40971;44.702;11.030;2023-07-16T22:28:29;101319.09;;;24.94;85.08
55077;BME280;40971;44.702;11.030;2023-07-16T22:38:30;101324.81;;;24.80;85.30
55077;BME280;40971;44.702;11.030;2023-07-16T22:48:37;101335.31;;;24.54;86.37
55077;BME280;40971;44.702;11.030;2023-07-16T22:58:39;101331.97;;;24.35;87.24
55077;BME280;40971;44.702;11.030;2023-07-16T23:08:42;101329.22;;;24.07;87.04
55077;BME280;40971;44.702;11.030;2023-07-16T23:18:43;101331.59;;;23.80;88.09
55077;BME280;40971;44.702;11.030;2023-07-16T23:28:45;101305.31;;;23.70;89.37
55077;BME280;40971;44.702;11.030;2023-07-16T23:38:47;101320.28;;;23.55;88.99
55077;BME280;40971;44.702;11.030;2023-07-16T23:48:48;101321.16;;;23.37;89.38
55077;BME280;40971;44.702;11.030;2023-07-16T23:58:51;101328.28;;;23.32;90.66
